sensor_id;sensor_type;location;lat;lon;timestamp;P1;durP1;ratioP1;P2;durP2;ratioP2
5483;SDS011;2764;48.794;8.326;2023-03-01T00:00:01;45.58;;;31.17;;
5483;SDS011;2764;48.794;8.326;2023-03-01T00:01:04;52.53;;;31.23;;
5483;SDS011;2764;48.794;8.326;2023-03-01T00:02:12;47.55;;;30.73;;
5483;SDS011;2764;48.794;8.326;2023-03-01T00:03:15;50.47;;;31.10;;
5483;SDS011;2764;48.794;8.326;2023-03-01T00:04:38;51.70;;;31.33;;
5483;SDS011;2764;48.794;8.326;2023-03-01T00:05:43;45.92;;;28.63;;
5483;SDS011;2764;48.794;8.326;2023-03-01T00:06:50;48.40;;;31.10;;
5483;SDS011;2764;48.794;8.326;2023-03-01T00:07:57;45.55;;;30.27;;
5483;SDS011;2764;48.794;8.326;2023-03-01T00:09:00;49.80;;;31.65;;
5483;SDS011;2764;48.794;8.326;2023-03-01T00:10:02;41.28;;;29.95;;
5483;SDS011;2764;48.794;8.326;2023-03-01T00:12:30;46.95;;;30.17;;
5483;SDS011;2764;48.794;8.326;2023-03-01T00:13:34;43.65;;;29.75;;
5483;SDS011;2764;48.794;8.326;2023-03-01T00:14:41;42.25;;;29.88;;
5483;SDS011;2764;48.794;8.326;2023-03-01T00:15:45;40.40;;;27.00;;
5483;SDS011;2764;48.794;8.326;2023-03-01T00:16:52;48.53;;;31.70;;
5483;SDS011;2764;48.794;8.326;2023-03-01T00:17:55;43.45;;;29.17;;
5483;SDS011;2764;48.794;8.326;2023-03-01T00:19:00;48.60;;;29.92;;
5483;SDS011;2764;48.794;8.326;2023-03-01T00:20:02;44.75;;;29.75;;
5483;SDS011;2764;48.794;8.326;2023-03-01T00:21:07;44.38;;;27.48;;
5483;SDS011;2764;48.794;8.326;2023-03-01T00:22:09;38.97;;;27.10;;
5483;SDS011;2764;48.794;8.326;2023-03-01T00:23:13;41.28;;;27.20;;
5483;SDS011;2764;48.794;8.326;2023-03-01T00:24:16;37.47;;;25.60;;
5483;SDS011;2764;48.794;8.326;2023-03-01T00:25:19;43.28;;;28.38;;
5483;SDS011;2764;48.794;8.326;2023-03-01T00:26:22;35.08;;;26.40;;
5483;SDS011;2764;48.794;8.326;2023-03-01T00:27:27;37.25;;;26.17;;
5483;SDS011;2764;48.794;8.326;2023-03-01T00:28:29;36.65;;;27.27;;
5483;SDS011;2764;48.794;8.326;2023-03-01T00:29:34;43.65;;;29.85;;
5483;SDS011;2764;48.794;8.326;2023-03-01T00:30:36;41.45;;;30.30;;
5483;SDS011;2764;48.794;8.326;2023-03-01T00:31:38;43.20;;;27.70;;
5483;SDS011;2764;48.794;8.326;2023-03-01T00:32:41;46.50;;;31.33;;
5483;SDS011;2764;48.794;8.326;2023-03-01T00:33:43;41.60;;;29.40;;
5483;SDS011;2764;48.794;8.326;2023-03-01T00:34:48;35.17;;;25.85;;
5483;SDS011;2764;48.794;8.326;2023-03-01T00:36:01;35.58;;;25.52;;
5483;SDS011;2764;48.794;8.326;2023-03-01T00:37:13;32.83;;;23.40;;
5483;SDS011;2764;48.794;8.326;2023-03-01T00:38:15;31.02;;;24.15;;
5483;SDS011;2764;48.794;8.326;2023-03-01T00:39:23;37.30;;;26.73;;
5483;SDS011;2764;48.794;8.326;2023-03-01T00:40:25;39.97;;;27.15;;
5483;SDS011;2764;48.794;8.326;2023-03-01T00:41:29;40.85;;;27.75;;
5483;SDS011;2764;48.794;8.326;2023-03-01T00:42:32;46.58;;;28.92;;
5483;SDS011;2764;48.794;8.326;2023-03-01T00:43:34;39.55;;;27.00;;
5483;SDS011;2764;48.794;8.326;2023-03-01T00:44:44;43.33;;;27.65;;
5483;SDS011;2764;48.794;8.326;2023-03-01T00:45:48;41.33;;;26.50;;
5483;SDS011;2764;48.794;8.326;2023-03-01T00:46:52;37.53;;;27.30;;
5483;SDS011;2764;48.794;8.326;2023-03-01T00:47:56;39.55;;;27.30;;
5483;SDS011;2764;48.794;8.326;2023-03-01T00:49:04;38.13;;;27.33;;
5483;SDS011;2764;48.794;8.326;2023-03-01T00:50:07;36.38;;;26.42;;
5483;SDS011;2764;48.794;8.326;2023-03-01T00:51:13;38.25;;;26.25;;
5483;SDS011;2764;48.794;8.326;2023-03-01T00:52:27;33.65;;;25.33;;
5483;SDS011;2764;48.794;8.326;2023-03-01T00:53:30;39.70;;;25.58;;
5483;SDS011;2764;48.794;8.326;2023-03-01T00:54:32;39.58;;;25.92;;
5483;SDS011;2764;48.794;8.326;2023-03-01T00:55:35;39.78;;;27.10;;
5483;SDS011;2764;48.794;8.326;2023-03-01T00:56:41;39.53;;;27.42;;
5483;SDS011;2764;48.794;8.326;2023-03-01T00:57:46;37.80;;;26.15;;
5483;SDS011;2764;48.794;8.326;2023-03-01T00:58:49;40.33;;;26.25;;
5483;SDS011;2764;48.794;8.326;2023-03-01T00:59:52;40.30;;;27.95;;
5483;SDS011;2764;48.794;8.326;2023-03-01T01:01:09;50.90;;;28.35;;
5483;SDS011;2764;48.794;8.326;2023-03-01T01:02:25;38.25;;;26.95;;
5483;SDS011;2764;48.794;8.326;2023-03-01T01:03:31;40.40;;;27.75;;
5483;SDS011;2764;48.794;8.326;2023-03-01T01:04:34;36.28;;;24.33;;
5483;SDS011;2764;48.794;8.326;2023-03-01T01:05:37;36.38;;;25.85;;
5483;SDS011;2764;48.794;8.326;2023-03-01T01:06:43;36.83;;;25.77;;
5483;SDS011;2764;48.794;8.326;2023-03-01T01:07:47;33.35;;;23.98;;
5483;SDS011;2764;48.794;8.326;2023-03-01T01:08:53;29.67;;;23.17;;
5483;SDS011;2764;48.794;8.326;2023-03-01T01:09:57;35.22;;;24.33;;
5483;SDS011;2764;48.794;8.326;2023-03-01T01:11:01;38.67;;;25.88;;
5483;SDS011;2764;48.794;8.326;2023-03-01T01:12:04;33.70;;;24.60;;
5483;SDS011;2764;48.794;8.326;2023-03-01T01:13:06;33.20;;;23.13;;
5483;SDS011;2764;48.794;8.326;2023-03-01T01:14:10;32.28;;;23.80;;
5483;SDS011;2764;48.794;8.326;2023-03-01T01:15:13;31.50;;;23.23;;
5483;SDS011;2764;48.794;8.326;2023-03-01T01:16:19;30.38;;;22.90;;
5483;SDS011;2764;48.794;8.326;2023-03-01T01:17:24;30.88;;;22.20;;
5483;SDS011;2764;48.794;8.326;2023-03-01T01:18:37;33.53;;;24.40;;
5483;SDS011;2764;48.794;8.326;2023-03-01T01:19:40;30.90;;;22.83;;
5483;SDS011;2764;48.794;8.326;2023-03-01T01:20:42;35.40;;;24.20;;
5483;SDS011;2764;48.794;8.326;2023-03-01T01:21:48;31.13;;;23.23;;
5483;SDS011;2764;48.794;8.326;2023-03-01T01:22:51;31.83;;;22.23;;
5483;SDS011;2764;48.794;8.326;2023-03-01T01:23:57;36.13;;;25.40;;
5483;SDS011;2764;48.794;8.326;2023-03-01T01:25:07;34.78;;;24.88;;
5483;SDS011;2764;48.794;8.326;2023-03-01T01:26:12;33.00;;;24.23;;
5483;SDS011;2764;48.794;8.326;2023-03-01T01:27:17;37.00;;;26.33;;
5483;SDS011;2764;48.794;8.326;2023-03-01T01:28:19;38.30;;;25.05;;
5483;SDS011;2764;48.794;8.326;2023-03-01T01:29:29;36.05;;;24.52;;
5483;SDS011;2764;48.794;8.326;2023-03-01T01:30:32;35.67;;;25.63;;
5483;SDS011;2764;48.794;8.326;2023-03-01T01:31:37;37.38;;;25.67;;
5483;SDS011;2764;48.794;8.326;2023-03-01T01:32:42;38.65;;;26.33;;
5483;SDS011;2764;48.794;8.326;2023-03-01T01:33:49;35.45;;;24.80;;
5483;SDS011;2764;48.794;8.326;2023-03-01T01:34:52;39.83;;;25.35;;
5483;SDS011;2764;48.794;8.326;2023-03-01T01:36:00;35.75;;;26.70;;
5483;SDS011;2764;48.794;8.326;2023-03-01T01:37:08;34.40;;;25.88;;
5483;SDS011;2764;48.794;8.326;2023-03-01T01:38:10;35.63;;;26.05;;
5483;SDS011;2764;48.794;8.326;2023-03-01T01:39:15;34.40;;;24.98;;
5483;SDS011;2764;48.794;8.326;2023-03-01T01:40:19;40.05;;;26.92;;
5483;SDS011;2764;48.794;8.326;2023-03-01T01:41:22;34.97;;;25.10;;
5483;SDS011;2764;48.794;8.326;2023-03-01T01:42:28;38.65;;;26.77;;
5483;SDS011;2764;48.794;8.326;2023-03-01T01:44:09;36.88;;;25.92;;
5483;SDS011;2764;48.794;8.326;2023-03-01T01:45:30;32.67;;;24.90;;
5483;SDS011;2764;48.794;8.326;2023-03-01T01:46:57;35.83;;;24.70;;
5483;SDS011;2764;48.794;8.326;2023-03-01T01:48:04;37.85;;;25.00;;
5483;SDS011;2764;48.794;8.326;2023-03-01T01:50:45;37.53;;;27.95;;
5483;SDS011;2764;48.794;8.326;2023-03-01T01:52:18;42.75;;;30.23;;
5483;SDS011;2764;48.794;8.326;2023-03-01T01:53:28;39.88;;;28.45;;
5483;SDS011;2764;48.794;8.326;2023-03-01T01:56:12;38.75;;;26.52;;
5483;SDS011;2764;48.794;8.326;2023-03-01T01:57:18;38.55;;;27.00;;
5483;SDS011;2764;48.794;8.326;2023-03-01T01:58:25;40.03;;;27.13;;
5483;SDS011;2764;48.794;8.326;2023-03-01T01:59:35;37.22;;;25.58;;
5483;SDS011;2764;48.794;8.326;2023-03-01T02:00:39;32.25;;;24.02;;
5483;SDS011;2764;48.794;8.326;2023-03-01T02:01:42;36.78;;;26.27;;
5483;SDS011;2764;48.794;8.326;2023-03-01T02:02:45;33.97;;;25.17;;
5483;SDS011;2764;48.794;8.326;2023-03-01T02:03:51;43.30;;;27.02;;
5483;SDS011;2764;48.794;8.326;2023-03-01T02:06:29;36.15;;;25.90;;
5483;SDS011;2764;48.794;8.326;2023-03-01T02:07:49;37.55;;;24.70;;
5483;SDS011;2764;48.794;8.326;2023-03-01T02:08:53;33.03;;;25.58;;
5483;SDS011;2764;48.794;8.326;2023-03-01T02:09:57;40.85;;;25.25;;
5483;SDS011;2764;48.794;8.326;2023-03-01T02:11:00;45.53;;;24.67;;
5483;SDS011;2764;48.794;8.326;2023-03-01T02:12:07;33.35;;;24.00;;
5483;SDS011;2764;48.794;8.326;2023-03-01T02:13:13;33.70;;;25.20;;
5483;SDS011;2764;48.794;8.326;2023-03-01T02:14:16;35.25;;;26.20;;
5483;SDS011;2764;48.794;8.326;2023-03-01T02:15:19;35.45;;;26.20;;
5483;SDS011;2764;48.794;8.326;2023-03-01T02:16:21;33.72;;;25.20;;
5483;SDS011;2764;48.794;8.326;2023-03-01T02:17:26;33.53;;;24.50;;
5483;SDS011;2764;48.794;8.326;2023-03-01T02:18:31;36.30;;;24.58;;
5483;SDS011;2764;48.794;8.326;2023-03-01T02:19:51;43.55;;;23.92;;
5483;SDS011;2764;48.794;8.326;2023-03-01T02:21:20;37.22;;;24.42;;
5483;SDS011;2764;48.794;8.326;2023-03-01T02:22:47;38.22;;;25.35;;
5483;SDS011;2764;48.794;8.326;2023-03-01T02:23:52;48.72;;;27.70;;
5483;SDS011;2764;48.794;8.326;2023-03-01T02:25:02;34.45;;;24.20;;
5483;SDS011;2764;48.794;8.326;2023-03-01T02:29:11;34.90;;;25.52;;
5483;SDS011;2764;48.794;8.326;2023-03-01T02:30:13;38.50;;;25.65;;
5483;SDS011;2764;48.794;8.326;2023-03-01T02:31:15;38.45;;;27.45;;
5483;SDS011;2764;48.794;8.326;2023-03-01T02:32:44;34.80;;;24.73;;
5483;SDS011;2764;48.794;8.326;2023-03-01T02:33:51;37.55;;;27.30;;
5483;SDS011;2764;48.794;8.326;2023-03-01T02:34:54;38.78;;;25.95;;
5483;SDS011;2764;48.794;8.326;2023-03-01T02:35:58;36.60;;;25.90;;
5483;SDS011;2764;48.794;8.326;2023-03-01T02:37:14;35.35;;;26.80;;
5483;SDS011;2764;48.794;8.326;2023-03-01T02:38:23;37.95;;;25.40;;
5483;SDS011;2764;48.794;8.326;2023-03-01T02:39:34;48.10;;;29.08;;
5483;SDS011;2764;48.794;8.326;2023-03-01T02:40:43;40.75;;;26.70;;
5483;SDS011;2764;48.794;8.326;2023-03-01T02:41:47;39.63;;;27.55;;
5483;SDS011;2764;48.794;8.326;2023-03-01T02:42:56;43.60;;;27.35;;
5483;SDS011;2764;48.794;8.326;2023-03-01T02:44:01;38.20;;;26.77;;
5483;SDS011;2764;48.794;8.326;2023-03-01T02:45:03;36.72;;;27.42;;
5483;SDS011;2764;48.794;8.326;2023-03-01T02:46:13;41.72;;;26.90;;
5483;SDS011;2764;48.794;8.326;2023-03-01T02:47:20;39.17;;;26.60;;
5483;SDS011;2764;48.794;8.326;2023-03-01T02:48:26;38.85;;;27.38;;
5483;SDS011;2764;48.794;8.326;2023-03-01T02:49:34;38.05;;;25.90;;
5483;SDS011;2764;48.794;8.326;2023-03-01T02:53:16;37.28;;;25.40;;
5483;SDS011;2764;48.794;8.326;2023-03-01T02:55:44;44.38;;;27.60;;
5483;SDS011;2764;48.794;8.326;2023-03-01T02:56:46;49.08;;;27.92;;
5483;SDS011;2764;48.794;8.326;2023-03-01T02:57:53;40.60;;;27.23;;
5483;SDS011;2764;48.794;8.326;2023-03-01T02:58:58;39.45;;;26.45;;
5483;SDS011;2764;48.794;8.326;2023-03-01T03:00:07;38.38;;;26.67;;
5483;SDS011;2764;48.794;8.326;2023-03-01T03:01:22;40.85;;;27.70;;
5483;SDS011;2764;48.794;8.326;2023-03-01T03:02:26;41.70;;;28.30;;
5483;SDS011;2764;48.794;8.326;2023-03-01T03:03:40;36.95;;;26.05;;
5483;SDS011;2764;48.794;8.326;2023-03-01T03:04:45;39.35;;;25.80;;
5483;SDS011;2764;48.794;8.326;2023-03-01T03:05:47;37.72;;;25.42;;
5483;SDS011;2764;48.794;8.326;2023-03-01T03:06:53;38.22;;;25.08;;
5483;SDS011;2764;48.794;8.326;2023-03-01T03:08:00;34.70;;;24.80;;
5483;SDS011;2764;48.794;8.326;2023-03-01T03:09:04;34.47;;;25.20;;
5483;SDS011;2764;48.794;8.326;2023-03-01T03:10:09;37.40;;;26.08;;
5483;SDS011;2764;48.794;8.326;2023-03-01T03:11:18;37.42;;;25.45;;
5483;SDS011;2764;48.794;8.326;2023-03-01T03:12:22;35.00;;;25.33;;
5483;SDS011;2764;48.794;8.326;2023-03-01T03:13:26;39.33;;;26.45;;
5483;SDS011;2764;48.794;8.326;2023-03-01T03:14:31;39.53;;;26.80;;
5483;SDS011;2764;48.794;8.326;2023-03-01T03:15:36;42.65;;;29.20;;
5483;SDS011;2764;48.794;8.326;2023-03-01T03:16:43;42.53;;;27.52;;
5483;SDS011;2764;48.794;8.326;2023-03-01T03:17:51;38.67;;;27.10;;
5483;SDS011;2764;48.794;8.326;2023-03-01T03:18:58;38.55;;;27.20;;
5483;SDS011;2764;48.794;8.326;2023-03-01T03:20:08;38.10;;;27.25;;
5483;SDS011;2764;48.794;8.326;2023-03-01T03:21:14;39.72;;;26.05;;
5483;SDS011;2764;48.794;8.326;2023-03-01T03:22:18;39.10;;;29.00;;
5483;SDS011;2764;48.794;8.326;2023-03-01T03:23:20;36.65;;;26.40;;
5483;SDS011;2764;48.794;8.326;2023-03-01T03:24:28;38.10;;;26.90;;
5483;SDS011;2764;48.794;8.326;2023-03-01T03:25:40;41.45;;;28.20;;
5483;SDS011;2764;48.794;8.326;2023-03-01T03:26:43;38.33;;;25.80;;
5483;SDS011;2764;48.794;8.326;2023-03-01T03:27:46;39.33;;;27.17;;
5483;SDS011;2764;48.794;8.326;2023-03-01T03:28:54;41.67;;;27.40;;
5483;SDS011;2764;48.794;8.326;2023-03-01T03:29:57;40.13;;;25.48;;
5483;SDS011;2764;48.794;8.326;2023-03-01T03:31:00;37.80;;;27.58;;
5483;SDS011;2764;48.794;8.326;2023-03-01T03:32:08;48.88;;;27.98;;
5483;SDS011;2764;48.794;8.326;2023-03-01T03:33:10;40.22;;;28.55;;
5483;SDS011;2764;48.794;8.326;2023-03-01T03:34:14;41.35;;;27.27;;
5483;SDS011;2764;48.794;8.326;2023-03-01T03:35:24;40.05;;;27.05;;
5483;SDS011;2764;48.794;8.326;2023-03-01T03:36:33;37.88;;;28.80;;
5483;SDS011;2764;48.794;8.326;2023-03-01T03:37:39;38.65;;;27.60;;
5483;SDS011;2764;48.794;8.326;2023-03-01T03:39:02;35.25;;;26.38;;
5483;SDS011;2764;48.794;8.326;2023-03-01T03:40:04;41.28;;;28.45;;
5483;SDS011;2764;48.794;8.326;2023-03-01T03:41:17;38.63;;;27.85;;
5483;SDS011;2764;48.794;8.326;2023-03-01T03:42:21;40.17;;;27.17;;
5483;SDS011;2764;48.794;8.326;2023-03-01T03:43:24;36.00;;;26.90;;
5483;SDS011;2764;48.794;8.326;2023-03-01T03:45:40;38.20;;;28.27;;
5483;SDS011;2764;48.794;8.326;2023-03-01T03:46:51;38.75;;;28.52;;
5483;SDS011;2764;48.794;8.326;2023-03-01T03:47:54;38.30;;;26.00;;
5483;SDS011;2764;48.794;8.326;2023-03-01T03:48:57;39.75;;;25.90;;
5483;SDS011;2764;48.794;8.326;2023-03-01T03:49:59;37.25;;;27.40;;
5483;SDS011;2764;48.794;8.326;2023-03-01T03:51:02;38.95;;;26.30;;
5483;SDS011;2764;48.794;8.326;2023-03-01T03:52:07;39.53;;;28.00;;
5483;SDS011;2764;48.794;8.326;2023-03-01T03:53:15;36.25;;;25.88;;
5483;SDS011;2764;48.794;8.326;2023-03-01T03:54:18;40.35;;;26.90;;
5483;SDS011;2764;48.794;8.326;2023-03-01T03:55:21;46.28;;;27.60;;
5483;SDS011;2764;48.794;8.326;2023-03-01T03:56:24;41.85;;;26.75;;
5483;SDS011;2764;48.794;8.326;2023-03-01T03:57:29;38.38;;;27.17;;
5483;SDS011;2764;48.794;8.326;2023-03-01T03:58:32;36.58;;;26.73;;
5483;SDS011;2764;48.794;8.326;2023-03-01T03:59:34;43.60;;;26.85;;
5483;SDS011;2764;48.794;8.326;2023-03-01T04:00:38;39.70;;;26.40;;
5483;SDS011;2764;48.794;8.326;2023-03-01T04:01:43;41.80;;;27.70;;
5483;SDS011;2764;48.794;8.326;2023-03-01T04:02:46;37.92;;;25.98;;
5483;SDS011;2764;48.794;8.326;2023-03-01T04:03:51;43.15;;;28.83;;
5483;SDS011;2764;48.794;8.326;2023-03-01T04:04:55;42.88;;;28.75;;
5483;SDS011;2764;48.794;8.326;2023-03-01T04:05:59;43.08;;;28.85;;
5483;SDS011;2764;48.794;8.326;2023-03-01T04:07:02;40.58;;;28.83;;
5483;SDS011;2764;48.794;8.326;2023-03-01T04:08:06;44.10;;;28.95;;
5483;SDS011;2764;48.794;8.326;2023-03-01T04:09:09;42.97;;;28.20;;
5483;SDS011;2764;48.794;8.326;2023-03-01T04:10:14;36.85;;;26.40;;
5483;SDS011;2764;48.794;8.326;2023-03-01T04:11:18;38.85;;;27.30;;
5483;SDS011;2764;48.794;8.326;2023-03-01T04:12:30;42.90;;;28.23;;
5483;SDS011;2764;48.794;8.326;2023-03-01T04:13:32;43.47;;;28.08;;
5483;SDS011;2764;48.794;8.326;2023-03-01T04:14:34;40.28;;;25.92;;
5483;SDS011;2764;48.794;8.326;2023-03-01T04:15:37;42.83;;;28.63;;
5483;SDS011;2764;48.794;8.326;2023-03-01T04:16:42;35.72;;;26.85;;
5483;SDS011;2764;48.794;8.326;2023-03-01T04:17:45;42.45;;;27.38;;
5483;SDS011;2764;48.794;8.326;2023-03-01T04:18:48;41.25;;;28.13;;
5483;SDS011;2764;48.794;8.326;2023-03-01T04:19:50;34.88;;;25.30;;
5483;SDS011;2764;48.794;8.326;2023-03-01T04:20:53;34.50;;;26.00;;
5483;SDS011;2764;48.794;8.326;2023-03-01T04:21:57;41.40;;;28.23;;
5483;SDS011;2764;48.794;8.326;2023-03-01T04:24:15;39.45;;;27.83;;
5483;SDS011;2764;48.794;8.326;2023-03-01T04:25:18;39.25;;;27.98;;
5483;SDS011;2764;48.794;8.326;2023-03-01T04:26:21;37.55;;;26.95;;
5483;SDS011;2764;48.794;8.326;2023-03-01T04:27:23;41.20;;;28.10;;
5483;SDS011;2764;48.794;8.326;2023-03-01T04:28:27;41.95;;;28.25;;
5483;SDS011;2764;48.794;8.326;2023-03-01T04:29:39;40.67;;;29.52;;
5483;SDS011;2764;48.794;8.326;2023-03-01T04:30:43;42.00;;;29.40;;
5483;SDS011;2764;48.794;8.326;2023-03-01T04:31:47;44.38;;;30.52;;
5483;SDS011;2764;48.794;8.326;2023-03-01T04:32:56;44.35;;;29.95;;
5483;SDS011;2764;48.794;8.326;2023-03-01T04:34:02;46.63;;;30.98;;
5483;SDS011;2764;48.794;8.326;2023-03-01T04:35:04;40.15;;;27.30;;
5483;SDS011;2764;48.794;8.326;2023-03-01T04:36:06;40.78;;;28.73;;
5483;SDS011;2764;48.794;8.326;2023-03-01T04:37:11;43.45;;;30.35;;
5483;SDS011;2764;48.794;8.326;2023-03-01T04:38:16;46.50;;;31.20;;
5483;SDS011;2764;48.794;8.326;2023-03-01T04:39:21;45.47;;;29.63;;
5483;SDS011;2764;48.794;8.326;2023-03-01T04:40:39;46.35;;;30.90;;
5483;SDS011;2764;48.794;8.326;2023-03-01T04:41:44;45.92;;;31.30;;
5483;SDS011;2764;48.794;8.326;2023-03-01T04:42:48;46.17;;;30.15;;
5483;SDS011;2764;48.794;8.326;2023-03-01T04:43:52;44.83;;;29.90;;
5483;SDS011;2764;48.794;8.326;2023-03-01T04:44:54;44.92;;;29.55;;
5483;SDS011;2764;48.794;8.326;2023-03-01T04:46:01;42.05;;;29.33;;
5483;SDS011;2764;48.794;8.326;2023-03-01T04:47:10;46.25;;;30.85;;
5483;SDS011;2764;48.794;8.326;2023-03-01T04:48:18;46.42;;;32.35;;
5483;SDS011;2764;48.794;8.326;2023-03-01T04:49:28;44.85;;;30.02;;
5483;SDS011;2764;48.794;8.326;2023-03-01T04:50:30;44.55;;;31.10;;
5483;SDS011;2764;48.794;8.326;2023-03-01T04:51:33;46.03;;;31.73;;
5483;SDS011;2764;48.794;8.326;2023-03-01T04:52:37;44.50;;;30.70;;
5483;SDS011;2764;48.794;8.326;2023-03-01T04:53:43;46.95;;;30.27;;
5483;SDS011;2764;48.794;8.326;2023-03-01T04:54:46;46.58;;;31.75;;
5483;SDS011;2764;48.794;8.326;2023-03-01T04:55:50;47.42;;;32.40;;
5483;SDS011;2764;48.794;8.326;2023-03-01T04:56:53;56.67;;;32.53;;
5483;SDS011;2764;48.794;8.326;2023-03-01T04:57:58;48.92;;;29.05;;
5483;SDS011;2764;48.794;8.326;2023-03-01T04:59:01;39.25;;;30.08;;
5483;SDS011;2764;48.794;8.326;2023-03-01T05:00:09;43.72;;;29.65;;
5483;SDS011;2764;48.794;8.326;2023-03-01T05:01:23;50.35;;;31.48;;
5483;SDS011;2764;48.794;8.326;2023-03-01T05:02:25;41.90;;;29.30;;
5483;SDS011;2764;48.794;8.326;2023-03-01T05:03:27;45.72;;;30.52;;
5483;SDS011;2764;48.794;8.326;2023-03-01T05:04:30;43.17;;;29.15;;
5483;SDS011;2764;48.794;8.326;2023-03-01T05:05:33;42.00;;;29.35;;
5483;SDS011;2764;48.794;8.326;2023-03-01T05:06:40;39.80;;;29.23;;
5483;SDS011;2764;48.794;8.326;2023-03-01T05:07:42;43.40;;;29.55;;
5483;SDS011;2764;48.794;8.326;2023-03-01T05:08:44;46.05;;;30.50;;
5483;SDS011;2764;48.794;8.326;2023-03-01T05:09:47;46.50;;;31.60;;
5483;SDS011;2764;48.794;8.326;2023-03-01T05:10:50;45.55;;;31.20;;
5483;SDS011;2764;48.794;8.326;2023-03-01T05:11:55;41.05;;;30.48;;
5483;SDS011;2764;48.794;8.326;2023-03-01T05:12:59;50.15;;;32.72;;
5483;SDS011;2764;48.794;8.326;2023-03-01T05:14:02;45.03;;;32.55;;
5483;SDS011;2764;48.794;8.326;2023-03-01T05:15:05;42.60;;;30.50;;
5483;SDS011;2764;48.794;8.326;2023-03-01T05:16:10;41.15;;;28.30;;
5483;SDS011;2764;48.794;8.326;2023-03-01T05:17:13;58.72;;;40.25;;
5483;SDS011;2764;48.794;8.326;2023-03-01T05:18:15;54.97;;;36.92;;
5483;SDS011;2764;48.794;8.326;2023-03-01T05:19:17;48.67;;;34.38;;
5483;SDS011;2764;48.794;8.326;2023-03-01T05:20:25;44.00;;;32.05;;
5483;SDS011;2764;48.794;8.326;2023-03-01T05:21:28;64.50;;;43.15;;
5483;SDS011;2764;48.794;8.326;2023-03-01T05:22:30;49.85;;;32.50;;
5483;SDS011;2764;48.794;8.326;2023-03-01T05:23:33;45.55;;;31.50;;
5483;SDS011;2764;48.794;8.326;2023-03-01T05:24:38;47.97;;;33.58;;
5483;SDS011;2764;48.794;8.326;2023-03-01T05:25:40;43.03;;;29.92;;
5483;SDS011;2764;48.794;8.326;2023-03-01T05:26:42;44.05;;;30.20;;
5483;SDS011;2764;48.794;8.326;2023-03-01T05:27:48;44.13;;;31.90;;
5483;SDS011;2764;48.794;8.326;2023-03-01T05:28:51;43.92;;;30.15;;
5483;SDS011;2764;48.794;8.326;2023-03-01T05:29:53;45.95;;;31.60;;
5483;SDS011;2764;48.794;8.326;2023-03-01T05:30:55;47.05;;;31.15;;
5483;SDS011;2764;48.794;8.326;2023-03-01T05:31:59;45.35;;;31.23;;
5483;SDS011;2764;48.794;8.326;2023-03-01T05:33:05;50.10;;;31.23;;
5483;SDS011;2764;48.794;8.326;2023-03-01T05:34:15;49.05;;;31.70;;
5483;SDS011;2764;48.794;8.326;2023-03-01T05:35:17;47.20;;;31.48;;
5483;SDS011;2764;48.794;8.326;2023-03-01T05:36:19;51.35;;;36.15;;
5483;SDS011;2764;48.794;8.326;2023-03-01T05:37:21;50.88;;;34.08;;
5483;SDS011;2764;48.794;8.326;2023-03-01T05:38:23;45.28;;;32.60;;
5483;SDS011;2764;48.794;8.326;2023-03-01T05:39:28;45.47;;;32.10;;
5483;SDS011;2764;48.794;8.326;2023-03-01T05:40:32;44.75;;;31.13;;
5483;SDS011;2764;48.794;8.326;2023-03-01T05:41:35;44.88;;;32.33;;
5483;SDS011;2764;48.794;8.326;2023-03-01T05:42:38;44.78;;;30.58;;
5483;SDS011;2764;48.794;8.326;2023-03-01T05:43:42;47.22;;;33.53;;
5483;SDS011;2764;48.794;8.326;2023-03-01T05:44:50;48.83;;;32.15;;
5483;SDS011;2764;48.794;8.326;2023-03-01T05:45:52;42.03;;;29.55;;
5483;SDS011;2764;48.794;8.326;2023-03-01T05:46:55;41.50;;;30.85;;
5483;SDS011;2764;48.794;8.326;2023-03-01T05:47:58;41.50;;;28.88;;
5483;SDS011;2764;48.794;8.326;2023-03-01T05:49:01;48.45;;;34.90;;
5483;SDS011;2764;48.794;8.326;2023-03-01T05:50:04;48.75;;;30.77;;
5483;SDS011;2764;48.794;8.326;2023-03-01T05:51:09;44.65;;;29.38;;
5483;SDS011;2764;48.794;8.326;2023-03-01T05:52:14;39.92;;;29.65;;
5483;SDS011;2764;48.794;8.326;2023-03-01T05:53:18;44.50;;;31.05;;
5483;SDS011;2764;48.794;8.326;2023-03-01T05:54:25;50.08;;;30.98;;
5483;SDS011;2764;48.794;8.326;2023-03-01T05:55:29;49.35;;;29.92;;
5483;SDS011;2764;48.794;8.326;2023-03-01T05:56:33;44.30;;;31.20;;
5483;SDS011;2764;48.794;8.326;2023-03-01T05:57:37;49.15;;;33.85;;
5483;SDS011;2764;48.794;8.326;2023-03-01T05:58:39;113.63;;;61.95;;
5483;SDS011;2764;48.794;8.326;2023-03-01T05:59:41;73.35;;;44.40;;
5483;SDS011;2764;48.794;8.326;2023-03-01T06:00:43;107.07;;;60.80;;
5483;SDS011;2764;48.794;8.326;2023-03-01T06:01:48;60.28;;;38.60;;
5483;SDS011;2764;48.794;8.326;2023-03-01T06:02:50;54.38;;;32.35;;
5483;SDS011;2764;48.794;8.326;2023-03-01T06:03:53;44.65;;;30.88;;
5483;SDS011;2764;48.794;8.326;2023-03-01T06:04:55;45.25;;;30.30;;
5483;SDS011;2764;48.794;8.326;2023-03-01T06:05:58;50.72;;;31.15;;
5483;SDS011;2764;48.794;8.326;2023-03-01T06:07:02;46.33;;;32.60;;
5483;SDS011;2764;48.794;8.326;2023-03-01T06:08:05;43.55;;;31.02;;
5483;SDS011;2764;48.794;8.326;2023-03-01T06:09:08;48.35;;;31.50;;
5483;SDS011;2764;48.794;8.326;2023-03-01T06:10:11;50.55;;;31.38;;
5483;SDS011;2764;48.794;8.326;2023-03-01T06:11:14;45.70;;;31.27;;
5483;SDS011;2764;48.794;8.326;2023-03-01T06:12:17;43.25;;;30.60;;
5483;SDS011;2764;48.794;8.326;2023-03-01T06:13:20;49.60;;;31.35;;
5483;SDS011;2764;48.794;8.326;2023-03-01T06:14:24;42.80;;;30.48;;
5483;SDS011;2764;48.794;8.326;2023-03-01T06:15:28;47.75;;;31.05;;
5483;SDS011;2764;48.794;8.326;2023-03-01T06:16:32;46.28;;;30.60;;
5483;SDS011;2764;48.794;8.326;2023-03-01T06:17:35;50.63;;;32.88;;
5483;SDS011;2764;48.794;8.326;2023-03-01T06:18:40;44.10;;;32.42;;
5483;SDS011;2764;48.794;8.326;2023-03-01T06:19:43;46.50;;;29.75;;
5483;SDS011;2764;48.794;8.326;2023-03-01T06:20:52;44.83;;;30.05;;
5483;SDS011;2764;48.794;8.326;2023-03-01T06:21:56;48.67;;;30.35;;
5483;SDS011;2764;48.794;8.326;2023-03-01T06:22:59;44.20;;;29.52;;
5483;SDS011;2764;48.794;8.326;2023-03-01T06:24:01;41.95;;;28.08;;
5483;SDS011;2764;48.794;8.326;2023-03-01T06:25:04;39.03;;;28.45;;
5483;SDS011;2764;48.794;8.326;2023-03-01T06:26:08;51.65;;;30.00;;
5483;SDS011;2764;48.794;8.326;2023-03-01T06:27:10;41.83;;;28.42;;
5483;SDS011;2764;48.794;8.326;2023-03-01T06:28:12;39.63;;;28.60;;
5483;SDS011;2764;48.794;8.326;2023-03-01T06:29:14;47.15;;;29.83;;
5483;SDS011;2764;48.794;8.326;2023-03-01T06:30:17;47.17;;;28.90;;
5483;SDS011;2764;48.794;8.326;2023-03-01T06:31:22;41.50;;;30.00;;
5483;SDS011;2764;48.794;8.326;2023-03-01T06:32:24;40.15;;;29.48;;
5483;SDS011;2764;48.794;8.326;2023-03-01T06:33:27;46.55;;;30.05;;
5483;SDS011;2764;48.794;8.326;2023-03-01T06:34:30;39.20;;;28.73;;
5483;SDS011;2764;48.794;8.326;2023-03-01T06:35:33;40.05;;;28.48;;
5483;SDS011;2764;48.794;8.326;2023-03-01T06:36:38;46.00;;;29.92;;
5483;SDS011;2764;48.794;8.326;2023-03-01T06:37:42;43.75;;;30.75;;
5483;SDS011;2764;48.794;8.326;2023-03-01T06:38:45;40.55;;;29.77;;
5483;SDS011;2764;48.794;8.326;2023-03-01T06:39:47;48.13;;;32.70;;
5483;SDS011;2764;48.794;8.326;2023-03-01T06:40:53;41.05;;;29.48;;
5483;SDS011;2764;48.794;8.326;2023-03-01T06:41:59;41.95;;;28.60;;
5483;SDS011;2764;48.794;8.326;2023-03-01T06:43:04;42.92;;;31.02;;
5483;SDS011;2764;48.794;8.326;2023-03-01T06:44:07;48.42;;;31.10;;
5483;SDS011;2764;48.794;8.326;2023-03-01T06:45:10;40.97;;;29.48;;
5483;SDS011;2764;48.794;8.326;2023-03-01T06:46:13;47.38;;;29.75;;
5483;SDS011;2764;48.794;8.326;2023-03-01T06:47:15;38.17;;;27.73;;
5483;SDS011;2764;48.794;8.326;2023-03-01T06:48:17;39.67;;;29.13;;
5483;SDS011;2764;48.794;8.326;2023-03-01T06:49:19;42.70;;;30.90;;